createdAt,value
2023-03-23T15:58:24.851Z,68.10
2023-03-23T16:00:53.809Z,68.10
2023-03-23T16:03:27.646Z,68.40
2023-03-23T16:05:57.630Z,69.00
2023-03-23T16:08:27.012Z,68.80
2023-03-23T16:10:54.940Z,69.20
2023-03-23T16:13:23.100Z,69.30
2023-03-23T16:15:51.669Z,68.80
2023-03-23T16:18:21.687Z,69.60
2023-03-23T16:20:50.881Z,69.80
2023-03-23T16:23:18.983Z,70.20
2023-03-23T16:25:51.057Z,69.60
2023-03-23T16:28:20.624Z,70.80
2023-03-23T16:30:51.254Z,71.20
2023-03-23T16:33:19.382Z,71.60
2023-03-23T16:35:47.585Z,71.80
2023-03-23T16:38:16.769Z,71.80
2023-03-23T16:40:45.893Z,72.10
2023-03-23T16:43:15.747Z,73.10
2023-03-23T16:45:45.820Z,73.10
2023-03-23T16:48:16.079Z,73.10
2023-03-23T16:50:45.552Z,73.20
2023-03-23T16:53:13.752Z,73.80
2023-03-23T16:55:42.348Z,73.90
2023-03-23T16:58:17.140Z,74.60
2023-03-23T17:00:49.776Z,75.10
2023-03-23T17:03:18.781Z,74.50
2023-03-23T17:05:48.620Z,75.10
2023-03-23T17:08:16.874Z,75.10
2023-03-23T17:10:45.390Z,75.60
2023-03-23T17:13:13.803Z,76.10
2023-03-23T17:15:46.078Z,77.30
2023-03-23T17:18:17.039Z,76.50
2023-03-23T17:20:45.219Z,76.90
2023-03-23T17:23:13.504Z,76.80
2023-03-23T17:25:41.848Z,76.90
2023-03-23T17:28:10.168Z,76.50
2023-03-23T17:30:41.165Z,76.50
2023-03-23T17:33:09.205Z,76.60
2023-03-23T17:35:38.667Z,76.10
2023-03-23T17:38:06.782Z,77.50
2023-03-23T17:40:34.955Z,78.00
2023-03-23T17:43:03.045Z,77.80
2023-03-23T17:45:31.072Z,78.30
2023-03-23T17:47:59.229Z,78.00
2023-03-23T17:50:27.733Z,78.50
2023-03-23T17:52:58.007Z,79.00
2023-03-23T17:55:26.075Z,77.90
2023-03-23T17:57:54.033Z,78.30
2023-03-23T18:00:22.694Z,78.50
2023-03-23T18:02:50.803Z,78.20
2023-03-23T18:05:18.889Z,77.50
2023-03-23T18:07:46.998Z,78.00
2023-03-23T18:10:17.225Z,78.40
2023-03-23T18:12:45.398Z,79.80
2023-03-23T18:15:13.498Z,78.60
2023-03-23T18:17:42.345Z,79.00
2023-03-23T18:20:10.833Z,78.80
2023-03-23T18:22:38.795Z,79.10
2023-03-23T18:25:07.212Z,80.50
2023-03-23T18:27:36.853Z,79.70
2023-03-23T18:30:05.619Z,79.70
2023-03-23T18:32:36.379Z,79.50
2023-03-23T18:35:04.880Z,79.70
2023-03-23T18:37:32.985Z,80.40
2023-03-23T18:40:01.027Z,80.40
2023-03-23T18:42:29.405Z,80.70
2023-03-23T18:44:59.954Z,81.20
2023-03-23T18:47:28.247Z,81.40
2023-03-23T18:49:56.650Z,81.60
2023-03-23T18:52:26.521Z,81.40
2023-03-23T18:54:54.909Z,81.80
2023-03-23T18:57:23.772Z,82.20
2023-03-23T18:59:52.430Z,82.20
2023-03-23T19:02:22.269Z,82.50
2023-03-23T19:04:50.739Z,81.60
2023-03-23T19:07:19.888Z,81.60
2023-03-23T19:09:48.165Z,82.40
2023-03-23T19:12:16.758Z,82.40
2023-03-23T19:14:44.773Z,82.90
2023-03-23T19:17:12.739Z,83.40
2023-03-23T19:19:43.147Z,82.80
2023-03-23T19:22:11.884Z,83.10
2023-03-23T19:24:40.031Z,82.90
2023-03-23T19:27:08.354Z,83.30
2023-03-23T19:29:36.671Z,83.60
2023-03-23T19:32:04.725Z,83.30
2023-03-23T19:34:32.662Z,82.90
2023-03-23T19:37:06.005Z,84.20
2023-03-23T19:39:39.107Z,84.30
2023-03-23T19:42:08.026Z,84.40
2023-03-23T19:44:36.039Z,83.30
2023-03-23T19:47:07.221Z,82.30
2023-03-23T19:49:35.743Z,81.70
2023-03-23T19:52:12.040Z,81.60
2023-03-23T19:54:42.238Z,83.00
2023-03-23T19:57:11.292Z,81.90
2023-03-23T19:59:39.794Z,81.50
2023-03-23T20:02:08.598Z,80.60
2023-03-23T20:04:37.213Z,80.70
2023-03-23T20:07:08.506Z,81.10
2023-03-23T20:09:38.267Z,80.70
2023-03-23T20:12:07.104Z,80.40
2023-03-23T20:14:36.966Z,80.30
2023-03-23T20:17:09.797Z,80.60
2023-03-23T20:19:38.264Z,80.30
2023-03-23T20:22:07.978Z,80.00
2023-03-23T20:24:38.062Z,80.10
2023-03-23T20:27:06.453Z,80.60
2023-03-23T20:29:35.036Z,80.30
2023-03-23T20:32:03.284Z,79.70
2023-03-23T20:34:31.631Z,79.70
2023-03-23T20:37:01.933Z,81.10
2023-03-23T20:39:33.085Z,81.60
2023-03-23T20:42:03.198Z,81.70
2023-03-23T20:44:35.138Z,81.90
2023-03-23T20:47:03.902Z,82.80
2023-03-23T20:49:32.105Z,83.20
2023-03-23T20:52:00.933Z,83.50
2023-03-23T20:54:30.236Z,83.90
2023-03-23T20:56:59.882Z,83.90
2023-03-23T20:59:28.010Z,84.50
2023-03-23T21:01:56.501Z,84.60
2023-03-23T21:04:27.360Z,84.90
2023-03-23T21:06:56.371Z,85.50
2023-03-23T21:09:24.765Z,85.60
2023-03-23T21:11:52.761Z,85.70
2023-03-23T21:14:22.426Z,86.20
2023-03-23T21:16:51.024Z,85.80
2023-03-23T21:19:19.664Z,86.10
2023-03-23T21:21:55.701Z,86.40
2023-03-23T21:24:26.474Z,86.80
2023-03-23T21:26:55.087Z,87.50
2023-03-23T21:29:24.886Z,87.80
2023-03-23T21:32:05.294Z,88.10
2023-03-23T21:34:36.168Z,87.60
2023-03-23T21:37:04.198Z,87.30
2023-03-23T21:39:32.301Z,87.80
2023-03-23T21:42:01.814Z,88.50
2023-03-23T21:44:35.017Z,88.80
2023-03-23T21:47:03.450Z,88.70
2023-03-23T21:49:34.039Z,88.90
2023-03-23T21:52:02.243Z,89.00
2023-03-23T21:54:31.069Z,88.60
2023-03-23T21:56:59.240Z,88.30
2023-03-23T21:59:27.854Z,89.10
2023-03-23T22:01:58.570Z,89.60
2023-03-23T22:04:28.048Z,89.60
2023-03-23T22:06:56.847Z,89.50
2023-03-23T22:09:25.105Z,89.70
2023-03-23T22:11:53.237Z,90.00
2023-03-23T22:14:21.600Z,90.00
2023-03-23T22:16:49.745Z,90.10
2023-03-23T22:19:19.335Z,90.30
2023-03-23T22:21:47.862Z,90.10
2023-03-23T22:24:15.978Z,90.30
2023-03-23T22:26:44.115Z,90.40
2023-03-23T22:29:12.690Z,90.30
2023-03-23T22:31:41.447Z,90.20
2023-03-23T22:34:09.800Z,90.30
2023-03-23T22:36:40.216Z,90.30
2023-03-23T22:39:09.813Z,90.10
2023-03-23T22:41:40.141Z,90.00
2023-03-23T22:44:12.806Z,90.20
2023-03-23T22:46:40.955Z,90.80
2023-03-23T22:49:09.160Z,90.90
2023-03-23T22:51:39.991Z,90.80
2023-03-23T22:54:08.503Z,91.00
2023-03-23T22:56:37.916Z,91.20
2023-03-23T22:59:07.050Z,91.10
2023-03-23T23:01:36.105Z,90.80
2023-03-23T23:04:05.196Z,90.60
2023-03-23T23:06:33.301Z,91.00
2023-03-23T23:09:02.783Z,91.20
2023-03-23T23:11:31.475Z,91.10
2023-03-23T23:13:59.598Z,91.20
2023-03-23T23:16:27.735Z,91.00
2023-03-23T23:18:56.082Z,90.80
2023-03-23T23:21:27.182Z,91.20
2023-03-23T23:23:55.339Z,91.60
2023-03-23T23:26:25.038Z,91.50
2023-03-23T23:28:53.235Z,91.20
2023-03-23T23:31:26.182Z,91.30
2023-03-23T23:33:56.163Z,91.40
2023-03-23T23:36:28.223Z,91.40
2023-03-23T23:38:56.605Z,91.40
2023-03-23T23:41:26.399Z,91.30
2023-03-23T23:43:54.936Z,91.20
2023-03-23T23:46:23.074Z,91.70
2023-03-23T23:48:51.202Z,91.80
2023-03-23T23:51:19.590Z,91.60
2023-03-23T23:53:53.274Z,91.40
2023-03-23T23:56:22.672Z,91.80
2023-03-23T23:58:52.702Z,91.80
